createdAt,value
2019-03-05T00:02:00.309Z,20.07
2019-03-05T00:04:30.123Z,19.17
2019-03-05T00:06:58.962Z,20.00
2019-03-05T00:09:28.215Z,19.97
2019-03-05T00:11:56.972Z,20.20
2019-03-05T00:14:25.814Z,19.27
2019-03-05T00:16:54.719Z,19.17
2019-03-05T00:19:23.743Z,19.10
2019-03-05T00:21:52.803Z,22.00
2019-03-05T00:24:48.271Z,19.57
2019-03-05T00:27:16.987Z,20.03
2019-03-05T00:30:18.210Z,20.60
2019-03-05T00:32:48.981Z,21.27
2019-03-05T00:35:47.439Z,18.87
2019-03-05T00:38:34.792Z,20.03
2019-03-05T00:41:19.804Z,19.80
2019-03-05T00:44:34.453Z,20.00
2019-03-05T00:47:18.323Z,19.13
2019-03-05T00:50:25.211Z,19.90
2019-03-05T00:53:26.040Z,20.00
2019-03-05T00:56:19.002Z,20.40
2019-03-05T00:59:31.639Z,19.93
2019-03-05T01:02:33.190Z,19.70
2019-03-05T01:05:22.460Z,19.83
2019-03-05T01:07:51.340Z,19.63
2019-03-05T01:10:20.949Z,21.27
2019-03-05T01:12:50.173Z,20.23
2019-03-05T01:15:18.943Z,20.07
2019-03-05T01:17:48.598Z,19.77
2019-03-05T01:20:17.437Z,20.60
2019-03-05T01:22:46.532Z,20.47
2019-03-05T01:25:40.369Z,21.07
2019-03-05T01:28:09.194Z,20.63
2019-03-05T01:31:01.332Z,19.90
2019-03-05T01:33:34.959Z,20.77
2019-03-05T01:36:08.428Z,20.20
2019-03-05T01:38:47.044Z,19.73
2019-03-05T01:41:16.059Z,19.47
2019-03-05T01:43:45.201Z,19.60
2019-03-05T01:46:14.145Z,19.00
2019-03-05T01:48:43.054Z,19.73
2019-03-05T01:51:12.057Z,19.00
2019-03-05T01:53:40.884Z,20.33
2019-03-05T01:56:09.830Z,19.20
2019-03-05T01:58:38.728Z,19.60
2019-03-05T02:01:08.421Z,20.27
2019-03-05T02:03:37.301Z,20.23
2019-03-05T02:06:06.232Z,21.63
2019-03-05T02:08:35.316Z,20.43
2019-03-05T02:11:04.893Z,20.90
2019-03-05T02:13:33.667Z,21.37
2019-03-05T02:16:02.604Z,21.70
2019-03-05T02:18:31.558Z,21.23
2019-03-05T02:21:00.853Z,21.07
2019-03-05T02:23:43.872Z,20.80
2019-03-05T02:26:50.217Z,20.57
2019-03-05T02:29:41.332Z,22.03
2019-03-05T02:32:56.973Z,21.27
2019-03-05T02:35:50.365Z,20.87
2019-03-05T02:38:45.141Z,20.47
2019-03-05T02:41:48.569Z,21.43
2019-03-05T02:44:27.618Z,43.07
2019-03-05T02:47:22.234Z,20.83
2019-03-05T02:50:35.453Z,19.70
2019-03-05T02:53:16.490Z,19.60
2019-03-05T02:56:29.840Z,20.40
2019-03-05T02:58:57.671Z,20.77
2019-03-05T03:01:48.562Z,21.20
2019-03-05T03:04:20.167Z,22.90
2019-03-05T03:06:49.964Z,20.90
2019-03-05T03:10:07.823Z,21.00
2019-03-05T03:12:36.765Z,20.00
2019-03-05T03:15:11.324Z,20.00
2019-03-05T03:17:40.307Z,19.80
2019-03-05T03:20:10.480Z,19.87
2019-03-05T03:22:39.336Z,19.67
2019-03-05T03:25:09.730Z,20.83
2019-03-05T03:27:38.583Z,19.37
2019-03-05T03:30:09.832Z,18.70
2019-03-05T03:32:38.642Z,19.50
2019-03-05T03:35:09.881Z,27.07
2019-03-05T03:37:38.767Z,19.60
2019-03-05T03:40:10.203Z,18.60
2019-03-05T03:42:39.012Z,19.13
2019-03-05T03:45:10.287Z,18.83
2019-03-05T03:47:39.171Z,18.90
2019-03-05T03:50:08.709Z,19.00
2019-03-05T03:52:37.556Z,17.90
2019-03-05T03:55:06.834Z,18.87
2019-03-05T03:57:35.574Z,19.60
2019-03-05T04:00:05.755Z,18.73
2019-03-05T04:02:34.787Z,18.43
2019-03-05T04:05:04.040Z,19.30
2019-03-05T04:07:32.925Z,19.13
2019-03-05T04:10:01.762Z,18.27
2019-03-05T04:12:30.693Z,18.40
2019-03-05T04:14:59.745Z,18.77
2019-03-05T04:17:28.663Z,18.53
2019-03-05T04:19:57.616Z,17.67
2019-03-05T04:22:26.720Z,18.63
2019-03-05T04:24:55.713Z,18.73
2019-03-05T04:27:24.631Z,18.33
2019-03-05T04:29:53.427Z,19.37
2019-03-05T04:32:23.831Z,19.03
2019-03-05T04:34:52.958Z,18.43
2019-03-05T04:37:22.014Z,18.90
2019-03-05T04:39:50.756Z,19.90
2019-03-05T04:42:19.792Z,19.23
2019-03-05T04:44:57.334Z,18.70
2019-03-05T04:47:26.174Z,19.03
2019-03-05T04:50:02.780Z,18.77
2019-03-05T04:52:35.111Z,19.63
2019-03-05T04:55:03.974Z,19.10
2019-03-05T04:57:33.055Z,18.70
2019-03-05T05:00:02.828Z,20.20
2019-03-05T05:02:32.112Z,19.67
2019-03-05T05:05:01.062Z,20.07
2019-03-05T05:07:30.150Z,19.63
2019-03-05T05:09:58.953Z,19.43
2019-03-05T05:12:27.879Z,20.70
2019-03-05T05:14:56.735Z,19.50
2019-03-05T05:17:45.594Z,19.27
2019-03-05T05:20:14.507Z,19.23
2019-03-05T05:22:43.371Z,18.73
2019-03-05T05:25:12.195Z,19.93
2019-03-05T05:27:41.001Z,20.77
2019-03-05T05:30:26.523Z,19.87
2019-03-05T05:32:55.687Z,19.87
2019-03-05T05:35:24.737Z,19.70
2019-03-05T05:37:53.558Z,18.80
2019-03-05T05:40:42.219Z,21.13
2019-03-05T05:43:16.638Z,20.90
2019-03-05T05:45:50.108Z,20.13
2019-03-05T05:48:19.092Z,20.67
2019-03-05T05:50:47.947Z,21.07
2019-03-05T05:53:16.791Z,20.23
2019-03-05T05:55:45.587Z,20.23
2019-03-05T05:58:14.430Z,19.63
2019-03-05T06:00:45.824Z,19.73
2019-03-05T06:03:14.654Z,20.73
2019-03-05T06:05:43.600Z,19.87
2019-03-05T06:08:12.507Z,20.63
2019-03-05T06:10:41.226Z,20.53
2019-03-05T06:13:10.002Z,20.77
2019-03-05T06:15:39.008Z,20.80
2019-03-05T06:18:07.919Z,20.70
2019-03-05T06:20:36.724Z,20.53
2019-03-05T06:23:05.494Z,21.10
2019-03-05T06:25:34.279Z,21.00
2019-03-05T06:28:03.163Z,20.70
2019-03-05T06:30:32.866Z,19.70
2019-03-05T06:33:02.094Z,19.83
2019-03-05T06:35:31.595Z,21.83
2019-03-05T06:38:00.420Z,20.43
2019-03-05T06:40:29.421Z,19.57
2019-03-05T06:42:58.455Z,20.83
2019-03-05T06:45:27.238Z,20.70
2019-03-05T06:47:56.379Z,21.20
2019-03-05T06:50:25.160Z,22.23
2019-03-05T06:52:53.919Z,20.73
2019-03-05T06:55:22.848Z,22.13
2019-03-05T06:57:51.995Z,21.13
2019-03-05T07:00:26.547Z,21.03
2019-03-05T07:02:55.714Z,22.87
2019-03-05T07:06:00.776Z,21.83
2019-03-05T07:08:30.133Z,22.13
2019-03-05T07:11:19.011Z,24.27
2019-03-05T07:13:48.108Z,21.70
2019-03-05T07:16:30.075Z,21.97
2019-03-05T07:19:57.539Z,22.10
2019-03-05T07:22:27.814Z,21.93
2019-03-05T07:24:56.645Z,20.97
2019-03-05T07:27:33.316Z,20.60
2019-03-05T07:30:11.347Z,20.43
2019-03-05T07:32:40.102Z,19.27
2019-03-05T07:35:10.489Z,20.80
2019-03-05T07:37:39.460Z,21.40
2019-03-05T07:40:08.976Z,22.00
2019-03-05T07:42:37.965Z,20.80
2019-03-05T07:45:07.204Z,20.63
2019-03-05T07:47:36.389Z,22.03
2019-03-05T07:50:06.035Z,21.37
2019-03-05T07:52:35.070Z,22.17
2019-03-05T07:55:13.193Z,21.53
2019-03-05T07:57:34.960Z,22.30
2019-03-05T08:00:05.580Z,21.20
2019-03-05T08:02:34.607Z,23.20
2019-03-05T08:05:03.338Z,22.33
2019-03-05T08:07:32.520Z,21.70
2019-03-05T08:10:08.572Z,21.50
2019-03-05T08:13:08.673Z,21.47
2019-03-05T08:15:49.796Z,21.37
2019-03-05T08:18:18.756Z,22.10
2019-03-05T08:20:47.479Z,21.07
2019-03-05T08:23:16.778Z,23.00
2019-03-05T08:25:45.567Z,21.57
2019-03-05T08:28:14.634Z,21.63
2019-03-05T08:30:43.587Z,22.90
2019-03-05T08:33:12.373Z,21.90
2019-03-05T08:35:41.159Z,21.80
2019-03-05T08:38:10.458Z,42.13
2019-03-05T08:40:39.238Z,21.80
2019-03-05T08:43:08.354Z,23.80
2019-03-05T08:45:37.659Z,22.20
2019-03-05T08:48:09.647Z,22.23
2019-03-05T08:50:38.700Z,23.43
2019-03-05T08:53:07.717Z,23.70
2019-03-05T08:55:36.748Z,23.67
2019-03-05T08:58:06.256Z,23.37
2019-03-05T09:00:35.345Z,23.23
2019-03-05T09:03:04.881Z,23.47
2019-03-05T09:05:33.900Z,23.70
2019-03-05T09:08:02.797Z,24.00
2019-03-05T09:10:31.627Z,24.90
2019-03-05T09:13:00.551Z,24.17
2019-03-05T09:15:29.671Z,24.30
2019-03-05T09:17:58.555Z,22.77
2019-03-05T09:20:27.465Z,24.57
2019-03-05T09:22:56.315Z,24.77
2019-03-05T09:25:25.263Z,25.10
2019-03-05T09:27:55.390Z,24.60
2019-03-05T09:30:25.040Z,24.20
2019-03-05T09:32:53.842Z,25.20
2019-03-05T09:35:22.651Z,23.90
2019-03-05T09:37:51.572Z,23.77
2019-03-05T09:40:21.589Z,24.57
2019-03-05T09:42:50.645Z,23.20
2019-03-05T09:45:20.096Z,22.80
2019-03-05T09:47:49.088Z,23.40
2019-03-05T09:50:18.302Z,22.80
2019-03-05T09:52:54.826Z,23.53
2019-03-05T09:55:19.208Z,24.30
2019-03-05T09:57:53.194Z,22.27
2019-03-05T10:00:22.928Z,23.37
2019-03-05T10:02:51.784Z,22.50
2019-03-05T10:05:20.917Z,23.00
2019-03-05T10:07:50.035Z,22.00
2019-03-05T10:10:21.372Z,22.57
2019-03-05T10:12:50.201Z,22.10
2019-03-05T10:15:20.066Z,22.73
2019-03-05T10:17:50.157Z,22.60
2019-03-05T10:20:20.819Z,22.13
2019-03-05T10:22:49.948Z,22.63
2019-03-05T10:25:20.271Z,21.57
2019-03-05T10:27:49.385Z,20.87
2019-03-05T10:30:24.851Z,21.93
2019-03-05T10:32:52.303Z,21.80
2019-03-05T10:35:23.012Z,21.93
2019-03-05T10:37:53.048Z,23.30
2019-03-05T10:40:23.209Z,22.20
2019-03-05T10:42:52.080Z,22.60
2019-03-05T10:45:21.206Z,23.33
2019-03-05T10:47:50.731Z,23.50
2019-03-05T10:50:23.207Z,23.20
2019-03-05T10:52:52.225Z,22.27
2019-03-05T10:55:26.303Z,22.67
2019-03-05T10:57:51.836Z,23.00
2019-03-05T11:00:24.892Z,23.07
2019-03-05T11:02:54.617Z,22.17
2019-03-05T11:05:24.073Z,21.87
2019-03-05T11:07:53.195Z,22.10
2019-03-05T11:10:22.122Z,22.10
2019-03-05T11:12:51.443Z,21.63
2019-03-05T11:15:22.739Z,22.30
2019-03-05T11:17:51.704Z,21.30
2019-03-05T11:20:20.867Z,21.90
2019-03-05T11:22:49.997Z,22.10
2019-03-05T11:25:19.169Z,23.07
2019-03-05T11:27:48.347Z,24.80
2019-03-05T11:30:19.620Z,23.87
2019-03-05T11:32:48.495Z,21.70
2019-03-05T11:35:19.956Z,22.73
2019-03-05T11:37:49.007Z,23.03
2019-03-05T11:40:21.304Z,21.70
2019-03-05T11:42:49.724Z,21.57
2019-03-05T11:45:24.208Z,21.07
2019-03-05T11:47:53.143Z,20.77
2019-03-05T11:50:22.753Z,21.50
2019-03-05T11:52:52.862Z,20.90
2019-03-05T11:55:22.330Z,21.30
2019-03-05T11:57:51.277Z,20.90
2019-03-05T12:00:30.880Z,21.87
2019-03-05T12:02:59.833Z,20.33
2019-03-05T12:05:29.175Z,21.63
2019-03-05T12:07:58.449Z,20.83
2019-03-05T12:10:27.467Z,22.30
2019-03-05T12:12:58.286Z,21.23
2019-03-05T12:15:27.454Z,22.07
2019-03-05T12:17:56.332Z,18.73
2019-03-05T12:20:25.139Z,16.83
2019-03-05T12:22:54.165Z,14.17
2019-03-05T12:25:23.807Z,13.17
2019-03-05T12:27:52.885Z,10.90
2019-03-05T12:30:22.462Z,10.77
2019-03-05T12:32:51.323Z,16.33
2019-03-05T12:35:20.411Z,10.40
2019-03-05T12:37:49.548Z,9.67
2019-03-05T12:40:18.488Z,9.20
2019-03-05T12:42:47.427Z,11.07
2019-03-05T12:45:16.468Z,9.70
2019-03-05T12:47:45.505Z,8.40
2019-03-05T12:50:16.855Z,9.13
2019-03-05T12:52:46.563Z,8.50
2019-03-05T12:55:15.848Z,9.07
2019-03-05T12:57:44.903Z,10.40
2019-03-05T13:00:19.959Z,15.93
2019-03-05T13:02:49.075Z,7.50
2019-03-05T13:05:18.403Z,8.53
2019-03-05T13:07:47.496Z,8.10
2019-03-05T13:10:18.187Z,5.37
2019-03-05T13:12:47.363Z,7.60
2019-03-05T13:15:19.302Z,6.20
2019-03-05T13:17:51.478Z,6.58
2019-03-05T13:20:22.439Z,6.87
2019-03-05T13:22:49.427Z,6.00
2019-03-05T13:25:18.614Z,6.80
2019-03-05T13:27:47.428Z,6.60
2019-03-05T13:30:21.998Z,7.80
2019-03-05T13:32:54.122Z,7.23
2019-03-05T13:35:21.044Z,7.37
2019-03-05T13:37:50.303Z,9.07
2019-03-05T13:40:21.168Z,8.13
2019-03-05T13:42:50.215Z,8.83
2019-03-05T13:45:19.237Z,9.00
2019-03-05T13:47:57.922Z,10.00
2019-03-05T13:51:08.216Z,11.67
2019-03-05T13:54:00.364Z,13.43
2019-03-05T13:56:55.331Z,15.97
2019-03-05T13:59:45.119Z,14.87
2019-03-05T14:02:36.581Z,15.77
2019-03-05T14:05:48.674Z,14.60
2019-03-05T14:08:55.454Z,14.83
2019-03-05T14:11:24.911Z,13.80
2019-03-05T14:13:53.906Z,12.87
2019-03-05T14:16:23.385Z,13.53
2019-03-05T14:18:52.221Z,13.13
2019-03-05T14:21:21.208Z,13.10
2019-03-05T14:23:51.777Z,11.60
2019-03-05T14:26:20.824Z,12.47
2019-03-05T14:28:49.724Z,12.07
2019-03-05T14:31:18.633Z,11.90
2019-03-05T14:33:50.244Z,12.07
2019-03-05T14:36:18.375Z,31.30
2019-03-05T14:38:47.385Z,12.43
2019-03-05T14:41:16.612Z,11.07
2019-03-05T14:43:46.156Z,10.77
2019-03-05T14:46:15.069Z,11.00
2019-03-05T14:48:44.404Z,11.70
2019-03-05T14:51:13.183Z,12.40
2019-03-05T14:53:43.293Z,12.00
2019-03-05T14:56:12.289Z,12.90
2019-03-05T14:58:41.040Z,12.70
2019-03-05T15:01:10.085Z,13.00
2019-03-05T15:03:45.283Z,12.33
2019-03-05T15:06:14.159Z,11.80
2019-03-05T15:08:42.994Z,15.53
2019-03-05T15:11:11.977Z,17.13
2019-03-05T15:13:41.158Z,19.47
2019-03-05T15:16:09.952Z,18.23
2019-03-05T15:18:38.875Z,19.00
2019-03-05T15:21:08.350Z,17.90
2019-03-05T15:23:37.223Z,18.03
2019-03-05T15:26:06.214Z,17.00
2019-03-05T15:28:35.499Z,16.80
2019-03-05T15:31:04.666Z,15.07
2019-03-05T15:33:33.724Z,15.70
2019-03-05T15:36:03.235Z,15.80
2019-03-05T15:38:32.231Z,16.10
2019-03-05T15:41:01.357Z,15.50
2019-03-05T15:43:30.171Z,16.20
2019-03-05T15:45:59.183Z,16.10
2019-03-05T15:48:28.082Z,17.80
2019-03-05T15:50:57.135Z,17.37
2019-03-05T15:53:27.669Z,17.60
2019-03-05T15:55:56.706Z,17.10
2019-03-05T15:58:25.632Z,16.47
2019-03-05T16:00:54.427Z,16.13
2019-03-05T16:03:23.678Z,15.60
2019-03-05T16:05:53.869Z,14.53
2019-03-05T16:08:25.183Z,14.47
2019-03-05T16:10:54.653Z,13.50
2019-03-05T16:13:24.561Z,13.30
2019-03-05T16:15:53.733Z,14.23
2019-03-05T16:18:22.573Z,12.90
2019-03-05T16:20:51.482Z,13.73
2019-03-05T16:23:20.421Z,12.57
2019-03-05T16:25:50.310Z,12.67
2019-03-05T16:28:20.590Z,12.97
2019-03-05T16:31:12.666Z,12.23
2019-03-05T16:33:48.559Z,12.63
2019-03-05T16:36:40.191Z,13.63
2019-03-05T16:39:33.751Z,12.90
2019-03-05T16:42:25.842Z,13.53
2019-03-05T16:45:09.843Z,12.97
2019-03-05T16:47:56.760Z,13.20
2019-03-05T16:50:45.756Z,12.17
2019-03-05T16:53:36.728Z,13.07
2019-03-05T16:56:23.100Z,14.03
2019-03-05T16:59:11.070Z,13.13
2019-03-05T17:01:48.479Z,12.80
2019-03-05T17:04:46.223Z,13.50
2019-03-05T17:07:43.540Z,13.60
2019-03-05T17:10:24.604Z,12.20
2019-03-05T17:12:53.571Z,11.97
2019-03-05T17:15:22.454Z,12.17
2019-03-05T17:17:51.503Z,13.20
2019-03-05T17:20:20.477Z,12.77
2019-03-05T17:22:49.933Z,12.97
2019-03-05T17:25:19.025Z,12.93
2019-03-05T17:27:48.218Z,12.50
2019-03-05T17:30:17.430Z,13.53
2019-03-05T17:32:46.584Z,14.60
2019-03-05T17:35:15.880Z,14.97
2019-03-05T17:37:45.076Z,16.10
2019-03-05T17:40:15.684Z,14.70
2019-03-05T17:42:45.747Z,15.07
2019-03-05T17:45:17.898Z,15.83
2019-03-05T17:47:47.312Z,15.47
2019-03-05T17:50:16.344Z,14.73
2019-03-05T17:52:45.190Z,14.73
2019-03-05T17:55:23.813Z,14.97
2019-03-05T17:57:47.739Z,14.70
2019-03-05T18:00:32.605Z,15.53
2019-03-05T18:03:01.769Z,15.53
2019-03-05T18:05:30.781Z,14.00
2019-03-05T18:07:59.915Z,14.37
2019-03-05T18:10:28.941Z,14.30
2019-03-05T18:12:58.029Z,15.37
2019-03-05T18:15:28.771Z,16.00
2019-03-05T18:17:57.765Z,15.47
2019-03-05T18:20:26.568Z,14.07
2019-03-05T18:22:55.636Z,14.57
2019-03-05T18:25:25.287Z,14.70
2019-03-05T18:27:54.225Z,14.80
2019-03-05T18:30:23.248Z,14.90
2019-03-05T18:32:52.221Z,14.87
2019-03-05T18:35:21.293Z,15.00
2019-03-05T18:37:50.155Z,14.50
2019-03-05T18:40:19.380Z,16.27
2019-03-05T18:42:48.224Z,14.30
2019-03-05T18:45:19.231Z,15.72
2019-03-05T18:47:48.166Z,14.33
2019-03-05T18:50:18.500Z,15.90
2019-03-05T18:52:48.252Z,14.73
2019-03-05T18:55:17.171Z,13.87
2019-03-05T18:57:46.368Z,15.30
2019-03-05T19:00:18.424Z,13.75
2019-03-05T19:02:47.273Z,13.88
2019-03-05T19:05:16.566Z,13.23
2019-03-05T19:07:46.960Z,13.90
2019-03-05T19:10:17.200Z,13.27
2019-03-05T19:12:46.103Z,13.88
2019-03-05T19:15:18.532Z,13.50
2019-03-05T19:17:48.968Z,12.43
2019-03-05T19:20:19.995Z,13.03
2019-03-05T19:22:50.197Z,11.83
2019-03-05T19:25:22.441Z,12.53
2019-03-05T19:27:51.303Z,12.25
2019-03-05T19:30:25.977Z,13.35
2019-03-05T19:32:55.976Z,11.87
2019-03-05T19:35:24.942Z,12.07
2019-03-05T19:37:53.710Z,13.78
2019-03-05T19:40:25.080Z,15.85
2019-03-05T19:42:53.981Z,13.73
2019-03-05T19:45:23.057Z,12.95
2019-03-05T19:47:52.215Z,12.90
2019-03-05T19:50:21.465Z,12.47
2019-03-05T19:52:50.651Z,13.73
2019-03-05T19:55:20.237Z,13.08
2019-03-05T19:57:49.291Z,12.98
2019-03-05T20:00:30.725Z,12.73
2019-03-05T20:02:59.840Z,12.67
2019-03-05T20:05:29.033Z,12.80
2019-03-05T20:07:58.122Z,12.93
2019-03-05T20:10:27.363Z,16.03
2019-03-05T20:12:56.756Z,12.53
2019-03-05T20:15:26.256Z,12.58
2019-03-05T20:17:58.939Z,12.93
2019-03-05T20:20:26.091Z,11.60
2019-03-05T20:22:55.518Z,12.80
2019-03-05T20:25:24.752Z,11.97
2019-03-05T20:27:54.320Z,12.03
2019-03-05T20:30:23.351Z,12.53
2019-03-05T20:32:52.291Z,11.68
2019-03-05T20:35:21.426Z,11.33
2019-03-05T20:37:50.389Z,11.40
2019-03-05T20:40:19.976Z,11.43
2019-03-05T20:42:49.053Z,12.45
2019-03-05T20:45:23.710Z,11.93
2019-03-05T20:47:52.760Z,12.07
2019-03-05T20:50:21.794Z,12.18
2019-03-05T20:52:51.083Z,12.60
2019-03-05T20:55:20.090Z,12.50
2019-03-05T20:57:49.294Z,11.93
2019-03-05T21:00:25.971Z,10.80
2019-03-05T21:02:56.701Z,11.18
2019-03-05T21:05:27.818Z,11.20
2019-03-05T21:07:57.003Z,12.05
2019-03-05T21:10:26.223Z,11.57
2019-03-05T21:12:55.472Z,11.28
2019-03-05T21:15:24.790Z,11.43
2019-03-05T21:17:53.775Z,11.33
2019-03-05T21:20:22.676Z,11.25
2019-03-05T21:22:52.183Z,11.80
2019-03-05T21:25:21.263Z,10.80
2019-03-05T21:27:51.137Z,11.28
2019-03-05T21:30:20.009Z,11.70
2019-03-05T21:32:48.815Z,11.78
2019-03-05T21:35:17.688Z,11.30
2019-03-05T21:37:46.596Z,11.18
2019-03-05T21:40:20.469Z,11.17
2019-03-05T21:42:49.672Z,11.08
2019-03-05T21:45:21.986Z,12.78
2019-03-05T21:47:51.079Z,12.35
2019-03-05T21:50:20.299Z,12.30
2019-03-05T21:52:49.274Z,13.25
2019-03-05T21:55:18.824Z,13.58
2019-03-05T21:57:47.768Z,13.40
2019-03-05T22:00:19.352Z,13.48
2019-03-05T22:02:48.192Z,13.50
2019-03-05T22:05:17.010Z,13.38
2019-03-05T22:07:46.159Z,13.98
2019-03-05T22:10:16.593Z,13.43
2019-03-05T22:12:45.784Z,12.35
2019-03-05T22:15:16.443Z,12.35
2019-03-05T22:17:45.331Z,11.35
2019-03-05T22:20:15.000Z,13.43
2019-03-05T22:22:44.341Z,12.35
2019-03-05T22:25:15.645Z,12.40
2019-03-05T22:27:44.481Z,12.75
2019-03-05T22:30:18.360Z,12.13
2019-03-05T22:32:47.343Z,13.25
2019-03-05T22:35:17.064Z,13.13
2019-03-05T22:37:46.496Z,11.60
2019-03-05T22:40:15.593Z,12.47
2019-03-05T22:42:44.808Z,12.33
2019-03-05T22:45:18.667Z,11.97
2019-03-05T22:47:49.594Z,12.20
2019-03-05T22:50:18.936Z,11.57
2019-03-05T22:52:47.812Z,10.85
2019-03-05T22:55:16.827Z,12.98
2019-03-05T22:57:45.969Z,11.73
2019-03-05T23:00:44.653Z,12.35
2019-03-05T23:03:15.046Z,11.83
2019-03-05T23:05:44.190Z,11.38
2019-03-05T23:08:13.815Z,11.50
2019-03-05T23:10:42.954Z,14.80
2019-03-05T23:13:12.868Z,11.03
2019-03-05T23:15:42.386Z,11.40
2019-03-05T23:18:11.457Z,11.12
2019-03-05T23:20:40.689Z,11.57
2019-03-05T23:23:09.566Z,11.10
2019-03-05T23:25:38.663Z,12.10
2019-03-05T23:28:07.682Z,10.00
2019-03-05T23:30:37.182Z,12.40
2019-03-05T23:33:06.299Z,11.05
2019-03-05T23:35:39.244Z,11.22
2019-03-05T23:38:08.461Z,11.18
2019-03-05T23:40:37.408Z,12.03
2019-03-05T23:43:06.760Z,11.12
2019-03-05T23:45:35.896Z,10.53
2019-03-05T23:48:05.103Z,10.50
2019-03-05T23:50:34.396Z,10.13
2019-03-05T23:53:03.373Z,11.10
2019-03-05T23:55:32.623Z,10.32
2019-03-05T23:58:01.594Z,9.90
